Time;durP1;ratioP1;P1;durP2;ratioP2;P2;SDS_P1;SDS_P2;PMS_P1;PMS_P2;Temp;Humidity;BMP_temperature;BMP_pressure;BME280_temperature;BME280_humidity;BME280_pressure;Samples;Min_cycle;Max_cycle;Signal;HPM_P1;HPM_P2
2023/12/09 00:01:01;;;;;;;52.40;24.70;;;0.80;99.90;;;;;;5076783;28;20053;-62
2023/12/09 00:03:27;;;;;;;50.20;23.63;;;0.80;99.90;;;;;;5094861;28;20077;-63
2023/12/09 00:05:53;;;;;;;51.83;24.63;;;0.90;99.90;;;;;;5077031;28;20150;-63
2023/12/09 00:08:19;;;;;;;53.53;23.55;;;0.80;99.90;;;;;;5094537;28;20028;-63
2023/12/09 00:10:45;;;;;;;56.92;24.73;;;0.80;99.90;;;;;;5094731;28;20055;-63
2023/12/09 00:13:10;;;;;;;49.65;23.63;;;0.90;99.90;;;;;;5094930;28;20381;-63
2023/12/09 00:15:36;;;;;;;54.47;25.05;;;0.80;99.90;;;;;;5076822;28;20030;-63
2023/12/09 00:18:02;;;;;;;53.65;24.85;;;0.90;99.90;;;;;;5077110;28;20064;-63
2023/12/09 00:20:28;;;;;;;55.40;25.50;;;0.80;99.90;;;;;;5094536;28;20631;-63
2023/12/09 00:22:54;;;;;;;55.67;25.55;;;0.80;99.90;;;;;;5094564;28;20107;-63
2023/12/09 00:25:20;;;;;;;56.78;24.83;;;0.80;99.90;;;;;;5094405;28;20473;-63
2023/12/09 00:27:45;;;;;;;60.70;26.27;;;0.90;99.90;;;;;;5094496;28;20031;-63
2023/12/09 00:30:11;;;;;;;59.53;25.35;;;0.90;99.90;;;;;;5094263;28;20473;-63
2023/12/09 00:32:37;;;;;;;55.30;25.23;;;0.90;99.90;;;;;;5094285;28;20048;-63
2023/12/09 00:35:03;;;;;;;51.33;24.52;;;0.90;99.90;;;;;;5077816;28;20020;-63
2023/12/09 00:37:29;;;;;;;55.70;25.00;;;0.90;99.90;;;;;;5075852;28;20039;-63
2023/12/09 00:39:54;;;;;;;55.08;25.05;;;0.90;99.90;;;;;;5076268;28;20020;-63
2023/12/09 00:42:20;;;;;;;54.58;24.38;;;0.90;99.90;;;;;;5094477;28;20020;-63
2023/12/09 00:44:46;;;;;;;54.50;26.00;;;0.80;99.90;;;;;;5094464;28;20031;-63
2023/12/09 00:47:11;;;;;;;56.63;24.55;;;0.90;99.90;;;;;;5094294;28;20036;-63
2023/12/09 00:49:37;;;;;;;57.55;23.67;;;0.90;99.90;;;;;;5094022;28;20028;-63
2023/12/09 00:52:03;;;;;;;54.03;24.55;;;1.00;99.90;;;;;;5093845;28;20024;-62
2023/12/09 00:54:29;;;;;;;52.67;23.38;;;0.90;99.90;;;;;;5094307;28;20035;-63
2023/12/09 00:56:55;;;;;;;51.05;24.90;;;0.90;99.90;;;;;;5094636;28;20466;-63
2023/12/09 00:59:20;;;;;;;52.13;23.27;;;0.90;99.90;;;;;;5075883;28;20032;-63
2023/12/09 01:01:46;;;;;;;51.03;24.75;;;0.90;99.90;;;;;;5094588;28;20376;-63
2023/12/09 01:04:12;;;;;;;54.08;24.40;;;0.90;99.90;;;;;;5093652;28;20508;-63
2023/12/09 01:06:38;;;;;;;52.45;24.75;;;0.90;99.90;;;;;;5093833;28;20035;-63
2023/12/09 01:09:03;;;;;;;50.85;23.95;;;0.90;99.90;;;;;;5093607;28;20475;-63
2023/12/09 01:11:29;;;;;;;51.95;24.65;;;0.90;99.90;;;;;;5093529;28;20024;-63
2023/12/09 01:13:55;;;;;;;49.92;23.75;;;0.90;99.90;;;;;;5094099;28;20024;-63
2023/12/09 01:16:20;;;;;;;57.30;24.88;;;0.90;99.90;;;;;;5093844;28;20031;-63
2023/12/09 01:18:46;;;;;;;51.30;23.95;;;0.90;99.90;;;;;;5094050;28;20058;-63
2023/12/09 01:21:12;;;;;;;50.70;24.10;;;0.90;99.90;;;;;;5093776;28;20028;-63
2023/12/09 01:23:39;;;;;;;53.33;24.23;;;0.80;99.90;;;;;;5093474;28;20024;-63
2023/12/09 01:26:06;;;;;;;48.85;23.92;;;0.90;99.90;;;;;;5093704;28;20377;-63
2023/12/09 01:28:32;;;;;;;55.45;24.23;;;0.90;99.90;;;;;;5093708;28;20028;-63
2023/12/09 01:30:58;;;;;;;53.72;23.77;;;0.90;99.90;;;;;;5093673;28;20039;-63
2023/12/09 01:33:24;;;;;;;54.15;24.23;;;0.90;99.90;;;;;;5093223;28;20052;-63
2023/12/09 01:35:49;;;;;;;52.38;24.23;;;0.90;99.90;;;;;;5092307;28;20110;-63
2023/12/09 01:38:15;;;;;;;52.45;24.13;;;0.90;99.90;;;;;;5075925;28;20025;-63
2023/12/09 01:40:40;;;;;;;51.03;23.90;;;0.90;99.90;;;;;;5093533;28;20028;-63
2023/12/09 01:43:10;;;;;;;56.67;24.35;;;0.90;99.90;;;;;;5096173;28;20035;-63
2023/12/09 01:45:36;;;;;;;50.17;22.40;;;0.90;99.90;;;;;;5097456;28;20032;-63
2023/12/09 01:48:03;;;;;;;53.28;24.60;;;0.90;99.90;;;;;;5097248;28;20443;-63
2023/12/09 01:50:30;;;;;;;56.35;25.15;;;0.90;99.90;;;;;;5098226;28;20024;-64
2023/12/09 01:52:57;;;;;;;53.15;23.60;;;0.90;99.90;;;;;;5098432;28;20051;-64
2023/12/09 01:55:24;;;;;;;50.83;23.95;;;0.90;99.90;;;;;;5098352;28;20063;-63
2023/12/09 01:57:51;;;;;;;47.92;21.70;;;0.90;99.90;;;;;;5098082;28;20114;-63
2023/12/09 02:00:18;;;;;;;55.25;25.13;;;0.90;99.90;;;;;;5097443;28;20042;-63
2023/12/09 02:02:45;;;;;;;50.33;23.83;;;0.90;99.90;;;;;;5079137;28;20354;-63
2023/12/09 02:05:11;;;;;;;52.47;23.55;;;0.90;99.90;;;;;;5078807;28;20020;-63
2023/12/09 02:07:37;;;;;;;59.17;24.45;;;0.90;99.90;;;;;;5097148;28;20028;-64
2023/12/09 02:10:04;;;;;;;55.30;24.30;;;0.90;99.90;;;;;;5097198;28;20028;-63
2023/12/09 02:12:33;;;;;;;52.60;24.30;;;0.90;99.90;;;;;;5078863;28;20057;-63
2023/12/09 02:15:06;;;;;;;55.67;25.05;;;0.90;99.90;;;;;;5079061;28;20035;-63
2023/12/09 02:17:39;;;;;;;52.08;23.10;;;0.90;99.90;;;;;;5097311;28;20373;-63
2023/12/09 02:20:08;;;;;;;55.58;24.15;;;0.90;99.90;;;;;;5078728;28;20028;-63
2023/12/09 02:22:33;;;;;;;50.88;23.00;;;0.90;99.90;;;;;;5097158;28;20027;-63
2023/12/09 02:24:59;;;;;;;56.72;24.33;;;0.90;99.90;;;;;;5097040;28;20024;-63
2023/12/09 02:27:31;;;;;;;50.25;23.00;;;0.90;99.90;;;;;;5096479;28;20528;-63
2023/12/09 02:30:06;;;;;;;52.10;23.92;;;0.80;99.90;;;;;;5096989;28;20035;-63
2023/12/09 02:32:34;;;;;;;49.40;22.67;;;0.90;99.90;;;;;;5097602;28;20044;-64
2023/12/09 02:35:02;;;;;;;53.70;23.02;;;0.90;99.90;;;;;;5096651;28;20031;-63
2023/12/09 02:37:30;;;;;;;55.13;24.20;;;0.90;99.90;;;;;;5096863;28;20031;-63
2023/12/09 02:39:58;;;;;;;56.22;24.52;;;0.90;99.90;;;;;;5096522;28;20024;-63
2023/12/09 02:42:24;;;;;;;54.92;24.33;;;0.90;99.90;;;;;;5097024;28;20127;-63
2023/12/09 02:44:50;;;;;;;57.22;24.30;;;0.80;99.90;;;;;;5077984;28;20028;-63
2023/12/09 02:47:16;;;;;;;56.88;24.55;;;0.80;99.90;;;;;;5096359;28;20116;-63
2023/12/09 02:49:42;;;;;;;51.33;23.10;;;0.80;99.90;;;;;;5078130;28;20066;-62
2023/12/09 02:52:09;;;;;;;52.30;22.75;;;0.80;99.90;;;;;;5096279;28;20024;-62
2023/12/09 02:54:34;;;;;;;51.72;24.23;;;0.80;99.90;;;;;;5096500;28;20024;-63
2023/12/09 02:57:00;;;;;;;58.75;24.20;;;0.80;99.90;;;;;;5096178;28;20384;-63
2023/12/09 02:59:28;;;;;;;54.45;23.55;;;0.80;99.90;;;;;;5096107;28;20032;-63
2023/12/09 03:01:54;;;;;;;50.75;22.75;;;0.70;99.90;;;;;;5096309;28;20027;-63
2023/12/09 03:04:20;;;;;;;56.65;24.63;;;0.70;99.90;;;;;;5096095;28;20545;-63
2023/12/09 03:06:46;;;;;;;54.88;25.02;;;0.70;99.90;;;;;;5094927;28;20106;-64
2023/12/09 03:09:11;;;;;;;49.72;22.65;;;0.70;99.90;;;;;;5095947;28;20032;-63
2023/12/09 03:11:37;;;;;;;49.42;23.05;;;0.70;99.90;;;;;;5077713;28;20100;-63
2023/12/09 03:14:03;;;;;;;49.13;23.23;;;0.80;99.90;;;;;;5096160;28;20023;-63
2023/12/09 03:16:28;;;;;;;55.15;24.23;;;0.70;99.90;;;;;;5095997;28;20031;-63
2023/12/09 03:18:54;;;;;;;53.05;24.35;;;0.70;99.90;;;;;;5095815;28;20423;-63
2023/12/09 03:21:19;;;;;;;52.92;23.52;;;0.70;99.90;;;;;;5095480;28;20024;-63
2023/12/09 03:23:45;;;;;;;56.88;24.35;;;0.70;99.90;;;;;;5095660;28;20024;-63
2023/12/09 03:26:18;;;;;;;50.40;23.73;;;0.70;99.90;;;;;;5095739;28;20032;-63
2023/12/09 03:28:44;;;;;;;51.50;23.98;;;0.60;99.90;;;;;;5095766;28;20490;-63
2023/12/09 03:31:12;;;;;;;48.90;23.33;;;0.70;99.90;;;;;;5095526;28;20024;-63
2023/12/09 03:33:38;;;;;;;55.78;24.80;;;0.60;99.90;;;;;;5095671;28;20478;-63
2023/12/09 03:36:05;;;;;;;52.00;24.52;;;0.60;99.90;;;;;;5077462;28;20032;-63
2023/12/09 03:38:30;;;;;;;48.50;23.05;;;0.70;99.90;;;;;;5095610;28;20057;-63
2023/12/09 03:40:56;;;;;;;57.55;25.30;;;0.70;99.90;;;;;;5095377;28;20435;-63
2023/12/09 03:43:22;;;;;;;53.05;24.08;;;0.70;99.90;;;;;;5095437;28;20035;-63
2023/12/09 03:45:47;;;;;;;61.53;24.60;;;0.70;99.90;;;;;;5095157;28;20111;-63
2023/12/09 03:48:13;;;;;;;53.75;23.38;;;0.70;99.90;;;;;;5095038;28;20125;-63
2023/12/09 03:50:39;;;;;;;55.55;25.58;;;0.70;99.90;;;;;;5095423;28;20103;-63
2023/12/09 03:53:04;;;;;;;61.55;25.02;;;0.70;99.90;;;;;;5076861;28;20124;-62
2023/12/09 03:55:30;;;;;;;54.03;23.27;;;0.70;99.90;;;;;;5095161;28;20024;-62
2023/12/09 03:57:56;;;;;;;55.40;23.73;;;0.70;99.90;;;;;;5094980;28;20024;-62
2023/12/09 04:00:22;;;;;;;52.28;23.77;;;0.70;99.90;;;;;;5093628;28;20578;-62
2023/12/09 04:02:48;;;;;;;59.67;24.50;;;0.70;99.90;;;;;;5094974;28;20364;-62
2023/12/09 04:05:14;;;;;;;57.05;24.88;;;0.70;99.90;;;;;;5094062;28;20499;-63
2023/12/09 04:07:40;;;;;;;49.42;23.00;;;0.70;99.90;;;;;;5094876;28;20028;-63
2023/12/09 04:10:06;;;;;;;51.25;23.77;;;0.70;99.90;;;;;;5095061;28;20047;-63
2023/12/09 04:12:32;;;;;;;53.95;25.20;;;0.70;99.90;;;;;;5094547;28;20437;-63
2023/12/09 04:14:58;;;;;;;51.58;23.33;;;0.70;99.90;;;;;;5094692;28;20115;-63
2023/12/09 04:17:23;;;;;;;48.78;23.02;;;0.70;99.90;;;;;;5094833;28;20028;-63
2023/12/09 04:19:51;;;;;;;56.70;24.33;;;0.70;99.90;;;;;;5094524;28;20024;-64
2023/12/09 04:22:17;;;;;;;53.72;22.50;;;0.70;99.90;;;;;;5077158;28;20362;-63
2023/12/09 04:24:43;;;;;;;50.45;23.55;;;0.70;99.90;;;;;;5094337;28;20028;-63
2023/12/09 04:27:08;;;;;;;55.22;23.13;;;0.70;99.90;;;;;;5094577;28;20381;-64
2023/12/09 04:29:34;;;;;;;54.67;22.67;;;0.70;99.90;;;;;;5077262;28;20508;-64
2023/12/09 04:32:00;;;;;;;52.97;25.02;;;0.70;99.90;;;;;;5092991;28;20044;-63
2023/12/09 04:34:25;;;;;;;54.13;23.67;;;0.70;99.90;;;;;;5076265;28;20126;-63
2023/12/09 04:36:52;;;;;;;57.65;25.65;;;0.70;99.90;;;;;;5094137;28;20060;-63
2023/12/09 04:39:18;;;;;;;50.45;24.00;;;0.70;99.90;;;;;;5094527;28;20075;-63
2023/12/09 04:41:43;;;;;;;54.28;24.20;;;0.70;99.90;;;;;;5076046;28;20457;-63
2023/12/09 04:44:09;;;;;;;47.85;23.48;;;0.70;99.90;;;;;;5076096;28;20127;-63
2023/12/09 04:46:35;;;;;;;54.58;23.48;;;0.70;99.90;;;;;;5076011;28;20077;-63
2023/12/09 04:49:00;;;;;;;54.90;24.10;;;0.70;99.90;;;;;;5075989;28;20039;-63
2023/12/09 04:51:26;;;;;;;52.97;23.85;;;0.70;99.90;;;;;;5093830;28;20488;-63
2023/12/09 04:53:52;;;;;;;57.17;23.33;;;0.70;99.90;;;;;;5093724;28;20036;-63
2023/12/09 04:56:18;;;;;;;57.63;24.77;;;0.70;99.90;;;;;;5092772;28;20124;-63
2023/12/09 04:58:44;;;;;;;53.40;23.90;;;0.70;99.90;;;;;;5094089;28;20122;-63
2023/12/09 05:01:09;;;;;;;56.97;25.02;;;0.70;99.90;;;;;;5094256;28;20056;-63
2023/12/09 05:03:35;;;;;;;58.58;24.83;;;0.70;99.90;;;;;;5093994;28;20032;-63
2023/12/09 05:06:01;;;;;;;54.13;24.27;;;0.70;99.90;;;;;;5094168;28;20074;-63
2023/12/09 05:08:28;;;;;;;55.15;24.67;;;0.70;99.90;;;;;;5093894;28;20103;-63
2023/12/09 05:10:53;;;;;;;56.42;23.90;;;0.70;99.90;;;;;;5075825;28;20117;-66
2023/12/09 05:13:19;;;;;;;57.83;25.65;;;0.70;99.90;;;;;;5075848;28;20475;-63
2023/12/09 05:15:45;;;;;;;58.65;23.77;;;0.70;99.90;;;;;;5094095;28;20032;-63
2023/12/09 05:18:11;;;;;;;59.20;24.63;;;0.70;99.90;;;;;;5078340;28;20028;-63
2023/12/09 05:20:36;;;;;;;59.05;23.58;;;0.70;99.90;;;;;;5098212;28;20052;-63
2023/12/09 05:23:02;;;;;;;54.70;23.42;;;0.70;99.90;;;;;;5097980;28;20431;-64
2023/12/09 05:25:27;;;;;;;57.67;24.05;;;0.70;99.90;;;;;;5097878;28;20020;-64
2023/12/09 05:27:53;;;;;;;56.22;24.08;;;0.70;99.90;;;;;;5097839;28;20028;-64
2023/12/09 05:30:19;;;;;;;68.75;31.95;;;0.70;99.90;;;;;;5097901;28;20055;-64
2023/12/09 05:32:45;;;;;;;62.35;28.98;;;0.80;99.90;;;;;;5097957;28;20048;-64
2023/12/09 05:35:10;;;;;;;61.08;29.23;;;0.70;99.90;;;;;;5079773;28;20107;-64
2023/12/09 05:37:36;;;;;;;65.20;30.17;;;0.70;99.90;;;;;;5097688;28;20466;-64
2023/12/09 05:40:03;;;;;;;56.65;28.13;;;0.70;99.90;;;;;;5097648;28;20039;-64
2023/12/09 05:42:29;;;;;;;58.17;25.67;;;0.70;99.90;;;;;;5079722;28;20418;-64
2023/12/09 05:44:55;;;;;;;58.30;25.35;;;0.70;99.90;;;;;;5079565;28;20063;-64
2023/12/09 05:47:20;;;;;;;56.35;24.80;;;0.70;99.90;;;;;;5097337;28;20028;-64
2023/12/09 05:49:46;;;;;;;55.72;25.48;;;0.70;99.90;;;;;;5079309;28;20097;-64
2023/12/09 05:52:11;;;;;;;58.72;25.10;;;0.70;99.90;;;;;;5079274;28;20035;-64
2023/12/09 05:54:38;;;;;;;52.72;23.25;;;0.70;99.90;;;;;;5079342;28;20028;-64
2023/12/09 05:57:03;;;;;;;56.63;23.30;;;0.70;99.90;;;;;;5098146;28;20465;-64
2023/12/09 05:59:29;;;;;;;51.53;23.45;;;0.70;99.90;;;;;;5079702;28;20032;-65
2023/12/09 06:01:56;;;;;;;57.38;25.88;;;0.70;99.90;;;;;;5098020;28;20059;-65
2023/12/09 06:04:21;;;;;;;57.85;24.95;;;0.70;99.90;;;;;;5096414;28;20028;-65
2023/12/09 06:06:47;;;;;;;58.40;23.08;;;0.70;99.90;;;;;;5097630;28;20055;-65
2023/12/09 06:09:13;;;;;;;53.97;23.05;;;0.70;99.90;;;;;;5095927;28;20090;-64
2023/12/09 06:11:38;;;;;;;56.70;24.65;;;0.70;99.90;;;;;;5079364;28;20380;-64
2023/12/09 06:14:05;;;;;;;52.20;23.30;;;0.70;99.90;;;;;;5097047;28;20024;-64
2023/12/09 06:16:31;;;;;;;57.53;24.27;;;0.70;99.90;;;;;;5078811;28;20381;-64
2023/12/09 06:18:57;;;;;;;60.17;23.60;;;0.70;99.90;;;;;;5078810;28;20028;-64
2023/12/09 06:21:24;;;;;;;53.25;23.10;;;0.70;99.90;;;;;;5096894;28;20032;-64
2023/12/09 06:23:50;;;;;;;55.90;24.80;;;0.70;99.90;;;;;;5078734;28;20137;-64
2023/12/09 06:26:16;;;;;;;60.15;24.65;;;0.70;99.90;;;;;;5080136;28;20485;-64
2023/12/09 06:28:41;;;;;;;55.00;23.85;;;0.70;99.90;;;;;;5077869;28;20102;-65
2023/12/09 06:31:07;;;;;;;57.03;23.88;;;0.80;99.90;;;;;;5078875;28;20024;-64
2023/12/09 06:33:33;;;;;;;60.33;24.52;;;0.80;99.90;;;;;;5078141;28;20058;-64
2023/12/09 06:35:59;;;;;;;57.55;23.30;;;0.70;99.90;;;;;;5096907;28;20058;-64
2023/12/09 06:38:25;;;;;;;56.08;23.15;;;0.80;99.90;;;;;;5078530;28;20024;-64
2023/12/09 06:40:51;;;;;;;48.08;22.27;;;0.80;99.90;;;;;;5078383;28;20032;-64
2023/12/09 06:43:17;;;;;;;45.60;21.38;;;0.80;99.90;;;;;;5095139;28;20457;-64
2023/12/09 06:45:42;;;;;;;52.80;22.00;;;0.80;99.90;;;;;;5095040;28;20032;-64
2023/12/09 06:48:08;;;;;;;52.58;21.00;;;0.80;99.90;;;;;;5096397;28;20024;-64
2023/12/09 06:50:33;;;;;;;50.60;22.27;;;0.80;99.90;;;;;;5096361;28;20024;-64
2023/12/09 06:53:00;;;;;;;46.72;21.35;;;0.80;99.90;;;;;;5096382;28;20098;-63
2023/12/09 06:55:26;;;;;;;49.35;21.35;;;0.80;99.90;;;;;;5078082;28;20058;-63
2023/12/09 06:57:52;;;;;;;46.15;20.85;;;0.80;99.90;;;;;;5095886;28;20568;-63
2023/12/09 07:00:17;;;;;;;48.00;21.30;;;0.80;99.90;;;;;;5078351;28;20103;-64
2023/12/09 07:02:43;;;;;;;50.70;21.70;;;0.70;99.90;;;;;;5077927;28;20027;-64
2023/12/09 07:05:13;;;;;;;51.35;21.02;;;0.70;99.90;;;;;;5077914;28;20060;-64
2023/12/09 07:07:39;;;;;;;51.38;22.85;;;0.90;99.90;;;;;;5078251;28;20084;-64
2023/12/09 07:10:06;;;;;;;52.08;22.85;;;0.80;99.90;;;;;;5096426;28;20032;-64
2023/12/09 07:12:32;;;;;;;49.42;22.30;;;0.80;99.90;;;;;;5077576;28;20032;-64
2023/12/09 07:15:00;;;;;;;48.38;21.80;;;0.80;99.90;;;;;;5096070;28;20031;-64
2023/12/09 07:17:26;;;;;;;50.58;21.90;;;0.80;99.90;;;;;;5095963;28;20118;-64
2023/12/09 07:19:56;;;;;;;53.28;21.48;;;0.80;99.90;;;;;;5077896;28;20546;-65
2023/12/09 07:22:22;;;;;;;57.85;22.95;;;0.80;99.90;;;;;;5096134;28;20020;-65
2023/12/09 07:24:48;;;;;;;45.80;20.38;;;0.80;99.90;;;;;;5095713;28;20047;-65
2023/12/09 07:27:14;;;;;;;48.75;21.38;;;0.80;99.90;;;;;;5095255;28;20067;-64
2023/12/09 07:29:39;;;;;;;46.15;19.58;;;0.80;99.90;;;;;;5095351;28;20466;-70
2023/12/09 07:32:05;;;;;;;38.88;18.50;;;0.90;99.90;;;;;;5095400;28;20054;-65
2023/12/09 07:34:31;;;;;;;45.17;18.92;;;0.90;99.90;;;;;;5095920;28;20461;-65
2023/12/09 07:36:56;;;;;;;45.15;18.98;;;0.80;99.90;;;;;;5095429;28;20035;-64
2023/12/09 07:39:23;;;;;;;40.47;16.88;;;0.80;99.90;;;;;;5094920;28;20032;-65
2023/12/09 07:41:50;;;;;;;41.90;19.33;;;1.00;99.90;;;;;;5076900;28;20035;-64
2023/12/09 07:44:17;;;;;;;40.63;18.15;;;0.80;99.90;;;;;;5077107;28;20039;-64
2023/12/09 07:46:43;;;;;;;48.05;17.95;;;0.80;99.90;;;;;;5077004;28;20024;-64
2023/12/09 07:49:09;;;;;;;39.83;16.90;;;0.90;99.90;;;;;;5095189;28;20039;-65
2023/12/09 07:51:35;;;;;;;37.83;18.02;;;0.90;99.90;;;;;;5076977;28;20027;-64
2023/12/09 07:54:00;;;;;;;40.10;16.67;;;0.90;99.90;;;;;;5095168;28;20101;-64
2023/12/09 07:56:26;;;;;;;35.28;16.50;;;0.90;99.90;;;;;;5076964;28;20473;-64
2023/12/09 07:58:52;;;;;;;39.42;16.67;;;0.90;99.90;;;;;;5094863;28;20070;-64
2023/12/09 08:01:18;;;;;;;31.58;16.95;;;0.90;99.90;;;;;;5094721;28;20461;-64
2023/12/09 08:03:44;;;;;;;36.60;16.42;;;0.90;99.90;;;;;;5095223;28;20083;-64
2023/12/09 08:06:11;;;;;;;36.10;17.85;;;0.90;99.90;;;;;;5098370;28;20496;-63
2023/12/09 08:08:37;;;;;;;34.97;16.67;;;0.90;99.90;;;;;;5083206;28;20081;-63
2023/12/09 08:11:03;;;;;;;36.67;17.10;;;0.90;99.90;;;;;;5094749;28;20030;-65
2023/12/09 08:13:29;;;;;;;37.30;16.83;;;0.90;99.90;;;;;;5115173;28;20024;-64
2023/12/09 08:15:55;;;;;;;29.83;15.45;;;0.90;99.90;;;;;;5114855;28;20028;-65
2023/12/09 08:18:20;;;;;;;33.08;15.48;;;0.90;99.90;;;;;;5116361;28;20418;-72
2023/12/09 08:20:46;;;;;;;26.83;15.18;;;1.00;99.90;;;;;;5097513;28;20024;-65
2023/12/09 08:23:14;;;;;;;32.15;15.75;;;1.00;99.90;;;;;;5116688;28;20413;-65
2023/12/09 08:25:43;;;;;;;29.95;15.15;;;1.00;99.90;;;;;;5096538;28;20031;-58
2023/12/09 08:28:09;;;;;;;31.05;15.55;;;1.00;99.90;;;;;;5114578;28;20374;-63
2023/12/09 08:30:35;;;;;;;29.13;14.38;;;1.10;99.90;;;;;;5114862;28;20039;-64
2023/12/09 08:33:01;;;;;;;28.67;15.25;;;1.00;99.90;;;;;;5114520;28;20052;-64
2023/12/09 08:35:26;;;;;;;30.10;13.90;;;1.00;99.90;;;;;;5114446;28;20090;-64
2023/12/09 08:37:53;;;;;;;29.45;15.57;;;1.00;99.90;;;;;;5114420;28;20058;-64
2023/12/09 08:40:19;;;;;;;29.35;14.52;;;1.00;99.90;;;;;;5114729;28;20373;-63
2023/12/09 08:42:45;;;;;;;29.15;15.70;;;0.90;99.90;;;;;;5114912;28;20453;-63
2023/12/09 08:45:16;;;;;;;30.02;15.35;;;0.90;99.90;;;;;;5096424;28;20023;-64
2023/12/09 08:47:42;;;;;;;31.35;16.08;;;0.90;99.90;;;;;;5095962;28;20038;-64
2023/12/09 08:50:08;;;;;;;30.88;16.20;;;0.90;99.90;;;;;;5096486;28;20050;-64
2023/12/09 08:52:35;;;;;;;31.40;16.30;;;0.90;99.90;;;;;;5114439;28;20388;-63
2023/12/09 08:55:01;;;;;;;29.75;15.90;;;0.90;99.90;;;;;;5095899;28;20027;-63
2023/12/09 08:57:27;;;;;;;32.03;15.95;;;0.90;99.90;;;;;;5114492;28;20024;-62
2023/12/09 08:59:53;;;;;;;33.92;15.48;;;0.90;99.90;;;;;;5112643;28;20479;-62
2023/12/09 09:02:21;;;;;;;32.53;15.85;;;0.90;99.90;;;;;;5121284;27;20084;-62
2023/12/09 09:05:03;;;;;;;33.90;16.35;;;0.90;99.90;;;;;;5116590;27;20027;-63
2023/12/09 09:07:38;;;;;;;31.02;16.10;;;0.90;99.90;;;;;;5115213;28;20027;-63
2023/12/09 09:10:05;;;;;;;32.03;16.48;;;0.90;99.90;;;;;;5134445;27;20015;-66
2023/12/09 09:12:30;;;;;;;35.03;17.60;;;0.90;99.90;;;;;;5134924;27;20031;-62
2023/12/09 09:14:57;;;;;;;32.15;16.17;;;0.90;99.90;;;;;;5122156;28;20040;-63
2023/12/09 09:17:32;;;;;;;33.50;15.95;;;0.90;99.90;;;;;;5113830;28;20035;-62
2023/12/09 09:20:01;;;;;;;33.38;16.05;;;0.90;99.90;;;;;;5095542;28;20473;-63
2023/12/09 09:22:29;;;;;;;29.40;15.75;;;0.90;99.90;;;;;;5113756;28;20030;-62
2023/12/09 09:24:58;;;;;;;34.75;15.95;;;0.90;99.90;;;;;;5102851;28;20088;-63
2023/12/09 09:27:28;;;;;;;32.63;15.65;;;1.00;99.90;;;;;;5093395;28;20440;-62
2023/12/09 09:30:00;;;;;;;31.48;15.57;;;0.90;99.90;;;;;;5075126;28;20092;-63
2023/12/09 09:32:28;;;;;;;35.72;17.05;;;0.90;99.90;;;;;;5075040;28;20048;-62
2023/12/09 09:34:56;;;;;;;36.05;17.30;;;0.90;99.90;;;;;;5093341;28;20107;-63
2023/12/09 09:37:24;;;;;;;34.22;17.02;;;0.90;99.90;;;;;;5075374;28;20392;-63
2023/12/09 09:39:50;;;;;;;32.50;17.20;;;0.90;99.90;;;;;;5093581;28;20385;-63
2023/12/09 09:42:36;;;;;;;32.08;16.45;;;1.00;99.90;;;;;;5075261;28;20036;-67
2023/12/09 09:45:23;;;;;;;37.10;16.77;;;0.90;99.90;;;;;;5075096;28;20480;-63
2023/12/09 09:47:53;;;;;;;32.30;16.58;;;1.00;99.90;;;;;;5093432;28;20040;-64
2023/12/09 09:50:24;;;;;;;39.38;17.15;;;1.00;99.90;;;;;;5075600;28;20437;-64
2023/12/09 09:52:52;;;;;;;41.85;18.55;;;1.00;99.90;;;;;;5113299;28;20028;-65
2023/12/09 09:55:27;;;;;;;36.27;17.47;;;1.00;99.90;;;;;;5094546;28;20426;-64
2023/12/09 09:57:54;;;;;;;35.63;16.75;;;1.00;99.90;;;;;;5113474;28;20028;-63
2023/12/09 10:00:28;;;;;;;35.58;17.80;;;0.90;99.90;;;;;;5113445;28;20073;-63
2023/12/09 10:02:59;;;;;;;35.67;16.55;;;0.90;99.90;;;;;;5114422;28;20032;-64
2023/12/09 10:05:33;;;;;;;35.30;17.13;;;0.90;99.90;;;;;;5117536;28;20027;-64
2023/12/09 10:08:05;;;;;;;34.05;17.38;;;1.00;99.90;;;;;;5099866;28;20039;-65
2023/12/09 10:10:35;;;;;;;31.65;16.80;;;1.00;99.90;;;;;;5118191;28;20026;-65
2023/12/09 10:13:03;;;;;;;38.08;18.02;;;1.00;99.90;;;;;;5099758;28;20054;-67
2023/12/09 10:15:32;;;;;;;23.98;12.55;;;1.00;99.90;;;;;;5117760;28;20024;-64
2023/12/09 10:18:14;;;;;;;37.80;17.83;;;1.00;99.90;;;;;;5118260;28;20032;-65
2023/12/09 10:20:46;;;;;;;31.60;16.20;;;1.00;99.90;;;;;;5099293;28;20023;-63
2023/12/09 10:23:13;;;;;;;32.85;17.55;;;1.00;99.90;;;;;;5117676;28;20047;-65
2023/12/09 10:25:40;;;;;;;34.10;17.60;;;1.00;99.90;;;;;;5117670;28;20495;-63
2023/12/09 10:28:08;;;;;;;37.72;18.70;;;1.10;99.90;;;;;;5099047;28;20118;-64
2023/12/09 10:30:34;;;;;;;35.58;18.73;;;1.00;99.90;;;;;;5117202;28;20028;-64
2023/12/09 10:33:00;;;;;;;34.80;17.23;;;1.00;99.90;;;;;;5098566;28;20077;-64
2023/12/09 10:35:36;;;;;;;37.13;17.83;;;1.20;99.90;;;;;;5114416;27;20031;-74
2023/12/09 10:38:05;;;;;;;37.00;19.42;;;1.00;99.90;;;;;;5098605;28;20035;-77
2023/12/09 10:40:33;;;;;;;33.63;17.98;;;1.00;99.90;;;;;;5120850;27;20056;-75
2023/12/09 10:43:04;;;;;;;33.80;17.77;;;1.10;99.90;;;;;;5137478;27;20081;-73
2023/12/09 10:45:32;;;;;;;37.20;18.63;;;1.00;99.90;;;;;;5119069;27;20117;-73
2023/12/09 10:47:59;;;;;;;34.28;17.90;;;1.00;99.90;;;;;;5137405;27;20023;-73
2023/12/09 10:50:26;;;;;;;36.67;18.08;;;1.00;99.90;;;;;;5136960;27;20027;-74
2023/12/09 10:52:54;;;;;;;35.97;18.50;;;1.10;99.90;;;;;;5136967;27;20037;-74
2023/12/09 10:55:19;;;;;;;33.67;17.33;;;1.00;99.90;;;;;;5118989;27;20023;-75
2023/12/09 10:57:48;;;;;;;40.95;18.35;;;1.00;99.90;;;;;;5119328;27;20034;-74
2023/12/09 11:00:15;;;;;;;32.90;17.15;;;1.30;99.90;;;;;;5138161;27;20023;-74
2023/12/09 11:02:42;;;;;;;32.72;16.85;;;1.00;99.90;;;;;;5119480;27;20031;-74
2023/12/09 11:05:12;;;;;;;29.92;16.55;;;1.00;99.90;;;;;;5120213;27;20027;-74
2023/12/09 11:07:39;;;;;;;32.97;16.02;;;1.00;99.90;;;;;;5139382;27;20023;-74
2023/12/09 11:10:08;;;;;;;30.83;16.20;;;1.10;99.90;;;;;;5138058;27;20027;-74
2023/12/09 11:12:35;;;;;;;36.90;17.45;;;1.00;99.90;;;;;;5131348;27;20061;-74
2023/12/09 11:15:13;;;;;;;31.08;16.70;;;1.10;99.90;;;;;;5098059;28;20060;-73
2023/12/09 11:17:47;;;;;;;31.33;15.68;;;1.10;99.90;;;;;;5118067;28;20038;-73
2023/12/09 11:20:15;;;;;;;30.25;16.02;;;1.20;99.90;;;;;;5117705;28;20028;-73
2023/12/09 11:22:46;;;;;;;33.60;17.27;;;1.20;99.90;;;;;;5118720;28;20445;-73
2023/12/09 11:25:25;;;;;;;26.55;15.45;;;1.30;99.90;;;;;;5102078;28;20045;-74
2023/12/09 11:27:52;;;;;;;26.90;14.95;;;1.30;99.90;;;;;;5120523;28;20458;-73
2023/12/09 11:30:39;;;;;;;31.25;16.27;;;1.30;99.90;;;;;;5101768;28;20020;-74
2023/12/09 11:33:05;;;;;;;33.08;15.80;;;1.40;99.90;;;;;;5101591;28;20051;-74
2023/12/09 11:35:33;;;;;;;33.40;16.67;;;1.50;99.90;;;;;;5120307;28;20027;-74
2023/12/09 11:38:00;;;;;;;30.15;15.45;;;1.60;99.90;;;;;;5102938;28;20372;-73
2023/12/09 11:40:30;;;;;;;26.00;14.80;;;1.60;99.90;;;;;;5119778;28;20030;-73
2023/12/09 11:42:57;;;;;;;24.60;14.63;;;1.60;99.90;;;;;;5120187;28;20027;-74
2023/12/09 11:45:23;;;;;;;24.73;13.43;;;1.60;99.90;;;;;;5100890;28;20496;-74
2023/12/09 11:47:49;;;;;;;31.13;14.73;;;1.60;99.90;;;;;;5119723;28;20031;-74
2023/12/09 11:50:16;;;;;;;28.63;15.05;;;1.50;99.90;;;;;;5118811;28;20477;-74
2023/12/09 11:52:46;;;;;;;28.67;14.95;;;1.50;99.90;;;;;;5118283;28;20473;-73
2023/12/09 11:55:15;;;;;;;28.08;14.93;;;1.50;99.90;;;;;;5119123;28;20058;-73
2023/12/09 11:57:41;;;;;;;29.02;15.52;;;1.50;99.90;;;;;;5100703;28;20400;-74
2023/12/09 12:00:11;;;;;;;28.77;14.52;;;1.60;99.90;;;;;;5101477;28;20028;-73
2023/12/09 12:02:42;;;;;;;27.15;15.05;;;1.60;99.90;;;;;;5120567;28;20016;-74
2023/12/09 12:05:09;;;;;;;27.25;13.98;;;1.70;99.90;;;;;;5100932;28;20137;-73
2023/12/09 12:07:35;;;;;;;28.85;15.82;;;1.60;99.90;;;;;;5101811;28;20039;-73
2023/12/09 12:10:02;;;;;;;36.58;15.52;;;1.70;99.90;;;;;;5101598;28;20168;-73
2023/12/09 12:12:28;;;;;;;31.25;16.10;;;1.70;99.90;;;;;;5122744;28;20034;-72
2023/12/09 12:14:54;;;;;;;36.70;16.67;;;1.70;99.90;;;;;;5118672;28;20019;-71
2023/12/09 12:17:20;;;;;;;28.40;14.38;;;1.80;99.90;;;;;;5098873;28;20031;-72
2023/12/09 12:19:46;;;;;;;27.92;14.55;;;1.80;99.90;;;;;;5100448;28;20028;-72
2023/12/09 12:22:12;;;;;;;24.92;14.25;;;1.70;99.90;;;;;;5099073;28;20034;-72
2023/12/09 12:24:45;;;;;;;27.00;14.82;;;1.70;99.90;;;;;;5116745;28;20023;-73
2023/12/09 12:27:11;;;;;;;28.58;14.50;;;1.80;99.90;;;;;;5118151;28;20031;-73
2023/12/09 12:29:38;;;;;;;26.42;14.30;;;1.70;99.90;;;;;;5118120;28;20028;-72
2023/12/09 12:32:06;;;;;;;29.95;14.18;;;1.70;99.90;;;;;;5099255;28;20047;-72
2023/12/09 12:34:32;;;;;;;;;;;1.70;99.90;;;;;;5098704;28;20027;-64
2023/12/09 12:36:58;;;;;;;29.98;13.95;;;1.60;99.90;;;;;;5114761;28;19927;-64